createdAt,value
2018-10-16T00:01:11.539Z,22.06
2018-10-16T00:03:41.362Z,22.04
2018-10-16T00:06:08.100Z,22.07
2018-10-16T00:08:34.833Z,22.05
2018-10-16T00:11:01.516Z,22.02
2018-10-16T00:13:29.245Z,22.06
2018-10-16T00:15:54.849Z,22.03
2018-10-16T00:18:21.595Z,22.04
2018-10-16T00:20:48.240Z,22.00
2018-10-16T00:23:14.965Z,22.02
2018-10-16T00:25:41.742Z,21.99
2018-10-16T00:28:08.392Z,22.00
2018-10-16T00:30:35.087Z,22.00
2018-10-16T00:33:01.802Z,21.98
2018-10-16T00:35:28.433Z,21.99
2018-10-16T00:37:55.144Z,21.95
2018-10-16T00:40:21.802Z,21.98
2018-10-16T00:42:48.491Z,21.97
2018-10-16T00:45:15.130Z,21.96
2018-10-16T00:50:18.952Z,21.93
2018-10-16T00:52:44.221Z,21.96
2018-10-16T00:55:10.900Z,21.93
2018-10-16T00:57:37.632Z,21.92
2018-10-16T01:00:04.305Z,21.92
2018-10-16T01:02:30.996Z,21.91
2018-10-16T01:04:59.859Z,21.89
2018-10-16T01:07:24.363Z,21.88
2018-10-16T01:09:51.104Z,21.87
2018-10-16T01:12:17.981Z,21.89
2018-10-16T01:14:44.752Z,21.86
2018-10-16T01:17:12.621Z,21.88
2018-10-16T01:19:38.153Z,21.83
2018-10-16T01:22:04.851Z,21.82
2018-10-16T01:24:31.501Z,21.83
2018-10-16T01:26:58.239Z,21.82
2018-10-16T01:29:24.933Z,21.78
2018-10-16T01:31:51.693Z,21.74
2018-10-16T01:34:18.309Z,21.78
2018-10-16T01:36:44.956Z,21.79
2018-10-16T01:39:13.415Z,21.75
2018-10-16T01:41:40.103Z,21.80
2018-10-16T01:44:06.799Z,21.76
2018-10-16T01:46:33.437Z,21.75
2018-10-16T01:49:00.151Z,21.74
2018-10-16T01:51:26.783Z,21.72
2018-10-16T01:53:53.417Z,21.77
2018-10-16T01:56:20.123Z,21.75
2018-10-16T01:58:46.767Z,21.72
2018-10-16T02:01:13.538Z,21.70
2018-10-16T02:03:40.174Z,21.71
2018-10-16T02:06:06.832Z,21.70
2018-10-16T02:08:33.629Z,21.69
2018-10-16T02:11:00.353Z,21.66
2018-10-16T02:13:27.073Z,21.68
2018-10-16T02:15:53.715Z,21.67
2018-10-16T02:18:20.488Z,21.69
2018-10-16T02:20:47.127Z,21.62
2018-10-16T02:23:14.978Z,21.64
2018-10-16T02:25:40.623Z,21.63
2018-10-16T02:28:07.279Z,21.61
2018-10-16T02:30:33.933Z,21.62
2018-10-16T02:33:00.593Z,21.63
2018-10-16T02:35:27.322Z,21.61
2018-10-16T02:37:54.015Z,21.60
2018-10-16T02:40:20.680Z,21.57
2018-10-16T02:42:47.372Z,21.58
2018-10-16T02:45:14.015Z,21.59
2018-10-16T02:47:40.689Z,21.53
2018-10-16T02:50:07.328Z,21.59
2018-10-16T02:52:34.056Z,21.56
2018-10-16T02:55:01.070Z,21.57
2018-10-16T02:57:27.693Z,21.55
2018-10-16T02:59:54.339Z,21.55
2018-10-16T03:02:20.991Z,21.53
2018-10-16T03:04:47.621Z,21.52
2018-10-16T03:07:17.540Z,21.51
2018-10-16T03:09:44.191Z,21.56
2018-10-16T03:12:10.830Z,21.47
2018-10-16T03:14:37.520Z,21.27
2018-10-16T03:17:04.255Z,21.36
2018-10-16T03:19:30.894Z,21.16
2018-10-16T03:21:57.530Z,21.10
2018-10-16T03:24:25.457Z,21.06
2018-10-16T03:26:50.819Z,20.87
2018-10-16T03:29:20.298Z,20.77
2018-10-16T03:31:46.951Z,20.79
2018-10-16T03:34:13.689Z,21.16
2018-10-16T03:36:40.336Z,21.22
2018-10-16T03:39:07.003Z,21.51
2018-10-16T03:41:33.659Z,21.80
2018-10-16T03:44:00.398Z,21.98
2018-10-16T03:46:28.138Z,22.10
2018-10-16T03:48:54.781Z,22.23
2018-10-16T03:51:21.428Z,22.37
2018-10-16T03:53:48.083Z,22.43
2018-10-16T03:56:14.732Z,22.54
2018-10-16T03:58:45.220Z,22.64
2018-10-16T04:01:10.491Z,22.74
2018-10-16T04:03:37.230Z,22.84
2018-10-16T04:06:03.872Z,22.92
2018-10-16T04:08:30.579Z,23.12
2018-10-16T04:10:57.232Z,23.12
2018-10-16T04:13:23.883Z,23.19
2018-10-16T04:15:50.593Z,23.22
2018-10-16T04:18:17.292Z,23.32
2018-10-16T04:20:44.076Z,23.41
2018-10-16T04:23:10.684Z,23.35
2018-10-16T04:25:37.352Z,23.40
2018-10-16T04:28:03.966Z,23.49
2018-10-16T04:30:32.020Z,23.51
2018-10-16T04:32:57.298Z,23.54
2018-10-16T04:35:23.935Z,23.64
2018-10-16T04:37:50.592Z,23.75
2018-10-16T04:40:20.011Z,23.78
2018-10-16T04:42:46.768Z,23.82
2018-10-16T04:45:13.474Z,23.86
2018-10-16T04:47:40.134Z,23.84
2018-10-16T04:50:08.121Z,23.93
2018-10-16T04:52:33.438Z,23.94
2018-10-16T04:55:00.510Z,24.01
2018-10-16T04:57:27.129Z,24.11
2018-10-16T04:59:59.172Z,24.08
2018-10-16T05:02:23.592Z,24.10
2018-10-16T05:04:50.294Z,24.14
2018-10-16T05:07:16.937Z,24.20
2018-10-16T05:09:43.577Z,24.19
2018-10-16T05:12:10.285Z,24.25
2018-10-16T05:14:36.927Z,24.42
2018-10-16T05:17:03.570Z,24.53
2018-10-16T05:19:30.226Z,24.52
2018-10-16T05:21:56.881Z,24.64
2018-10-16T05:24:23.564Z,24.72
2018-10-16T05:26:50.291Z,24.87
2018-10-16T05:29:16.963Z,24.94
2018-10-16T05:31:43.579Z,25.13
2018-10-16T05:34:10.273Z,25.29
2018-10-16T05:36:38.112Z,25.32
2018-10-16T05:39:05.716Z,25.33
2018-10-16T05:41:35.454Z,25.56
2018-10-16T05:44:02.135Z,25.47
2018-10-16T05:46:30.134Z,25.65
2018-10-16T05:48:55.565Z,25.81
2018-10-16T05:51:22.144Z,25.90
2018-10-16T05:53:48.849Z,25.99
2018-10-16T05:56:15.485Z,25.90
2018-10-16T05:58:42.144Z,25.63
2018-10-16T06:01:08.885Z,25.48
2018-10-16T06:03:35.661Z,25.43
2018-10-16T06:06:02.296Z,25.35
2018-10-16T06:08:29.082Z,25.20
2018-10-16T06:10:55.782Z,25.19
2018-10-16T06:13:22.383Z,25.24
2018-10-16T06:15:49.057Z,25.13
2018-10-16T06:18:15.762Z,25.17
2018-10-16T06:20:45.723Z,25.12
2018-10-16T06:23:12.369Z,25.11
2018-10-16T06:25:39.129Z,25.14
2018-10-16T06:28:05.849Z,25.03
2018-10-16T06:30:32.466Z,25.05
2018-10-16T06:33:00.460Z,25.06
2018-10-16T06:35:25.796Z,25.02
2018-10-16T06:37:52.518Z,25.04
2018-10-16T06:40:19.231Z,25.05
2018-10-16T06:42:45.806Z,25.06
2018-10-16T06:45:12.468Z,24.93
2018-10-16T06:47:39.259Z,25.01
2018-10-16T06:50:05.814Z,24.98
2018-10-16T06:52:32.459Z,24.90
2018-10-16T06:54:59.122Z,24.94
2018-10-16T06:57:25.848Z,24.94
2018-10-16T06:59:53.869Z,24.92
2018-10-16T07:02:19.214Z,24.91
2018-10-16T07:04:45.965Z,24.92
2018-10-16T07:07:12.792Z,24.90
2018-10-16T07:09:39.342Z,24.87
2018-10-16T07:12:06.127Z,24.92
2018-10-16T07:14:32.767Z,24.91
2018-10-16T07:16:59.562Z,24.86
2018-10-16T07:19:26.199Z,24.99
2018-10-16T07:24:22.233Z,24.88
2018-10-16T07:26:48.982Z,25.03
2018-10-16T07:29:15.700Z,24.92
2018-10-16T07:31:42.354Z,24.92
2018-10-16T07:34:09.030Z,24.89
2018-10-16T07:36:36.930Z,24.89
2018-10-16T07:39:02.622Z,24.91
2018-10-16T07:41:29.168Z,24.94
2018-10-16T07:43:55.832Z,24.97
2018-10-16T07:46:25.350Z,24.97
2018-10-16T07:48:53.313Z,24.98
2018-10-16T07:51:18.862Z,24.91
2018-10-16T07:53:45.501Z,24.96
2018-10-16T07:56:12.160Z,24.99
2018-10-16T07:58:38.867Z,24.97
2018-10-16T08:01:06.905Z,24.96
2018-10-16T08:03:34.744Z,24.96
2018-10-16T08:05:59.197Z,25.03
2018-10-16T08:08:26.873Z,24.96
2018-10-16T08:10:53.661Z,24.96
2018-10-16T08:13:20.350Z,24.95
2018-10-16T08:15:47.065Z,24.95
2018-10-16T08:18:13.781Z,24.98
2018-10-16T08:20:40.429Z,24.96
2018-10-16T08:23:07.150Z,24.99
2018-10-16T08:25:33.839Z,25.00
2018-10-16T08:28:00.486Z,24.99
2018-10-16T08:30:27.148Z,24.98
2018-10-16T08:32:53.851Z,25.01
2018-10-16T08:35:20.498Z,25.02
2018-10-16T08:40:52.343Z,24.88
2018-10-16T08:43:19.057Z,24.91
2018-10-16T08:45:45.738Z,24.89
2018-10-16T08:48:12.413Z,24.85
2018-10-16T08:50:39.059Z,24.85
2018-10-16T08:53:05.695Z,24.86
2018-10-16T08:55:32.388Z,24.86
2018-10-16T08:58:01.315Z,24.86
2018-10-16T09:00:26.845Z,24.87
2018-10-16T09:02:53.527Z,24.95
2018-10-16T09:05:23.391Z,25.05
2018-10-16T09:07:51.413Z,24.88
2018-10-16T09:10:16.758Z,24.84
2018-10-16T09:12:43.587Z,24.92
2018-10-16T09:15:10.243Z,24.91
2018-10-16T09:17:36.938Z,24.89
2018-10-16T09:20:03.854Z,24.90
2018-10-16T09:22:30.513Z,24.92
2018-10-16T09:24:57.268Z,24.94
2018-10-16T09:27:23.902Z,24.97
2018-10-16T09:29:50.836Z,24.98
2018-10-16T09:32:17.995Z,25.00
2018-10-16T09:34:44.737Z,24.99
2018-10-16T09:37:11.409Z,24.98
2018-10-16T09:39:38.049Z,25.02
2018-10-16T09:42:06.008Z,24.98
2018-10-16T09:44:31.566Z,24.98
2018-10-16T09:47:01.104Z,24.96
2018-10-16T09:49:28.802Z,24.91
2018-10-16T09:51:55.569Z,24.89
2018-10-16T09:54:22.408Z,24.88
2018-10-16T09:56:49.062Z,24.90
2018-10-16T09:59:15.819Z,24.99
2018-10-16T10:01:42.478Z,24.98
2018-10-16T10:04:09.133Z,24.91
2018-10-16T10:06:35.771Z,24.92
2018-10-16T10:09:02.526Z,24.96
2018-10-16T10:11:30.574Z,25.01
2018-10-16T10:13:57.057Z,24.99
2018-10-16T10:16:23.816Z,24.96
2018-10-16T10:18:50.765Z,24.98
2018-10-16T10:21:17.610Z,25.00
2018-10-16T10:23:44.230Z,25.00
2018-10-16T10:26:11.055Z,25.04
2018-10-16T10:28:37.711Z,25.03
2018-10-16T10:31:05.671Z,25.05
2018-10-16T10:33:31.038Z,25.08
2018-10-16T10:35:57.805Z,25.13
2018-10-16T10:38:24.501Z,25.11
2018-10-16T10:40:51.165Z,25.17
2018-10-16T10:43:17.880Z,25.17
2018-10-16T10:45:44.621Z,25.23
2018-10-16T10:48:14.147Z,25.34
2018-10-16T10:50:41.311Z,25.35
2018-10-16T10:53:07.606Z,25.36
2018-10-16T10:55:34.313Z,25.34
2018-10-16T10:58:01.011Z,25.33
2018-10-16T11:00:29.300Z,25.36
2018-10-16T11:02:54.762Z,25.49
2018-10-16T11:05:21.523Z,25.46
2018-10-16T11:07:48.264Z,25.47
2018-10-16T11:10:15.038Z,25.41
2018-10-16T11:12:41.699Z,25.40
2018-10-16T11:15:08.438Z,25.42
2018-10-16T11:17:35.271Z,25.51
2018-10-16T11:20:02.050Z,25.44
2018-10-16T11:22:28.687Z,25.42
2018-10-16T11:24:55.508Z,25.45
2018-10-16T11:27:22.255Z,25.53
2018-10-16T11:29:48.956Z,25.56
2018-10-16T11:32:15.622Z,25.58
2018-10-16T11:34:42.315Z,25.55
2018-10-16T11:37:09.056Z,25.77
2018-10-16T11:39:35.652Z,25.60
2018-10-16T11:42:02.302Z,25.65
2018-10-16T11:44:29.065Z,25.63
2018-10-16T11:46:55.726Z,25.56
2018-10-16T11:49:22.490Z,25.63
2018-10-16T11:51:49.155Z,25.69
2018-10-16T11:54:15.829Z,25.63
2018-10-16T11:56:42.465Z,25.59
2018-10-16T11:59:09.241Z,25.73
2018-10-16T12:01:35.909Z,25.69
2018-10-16T12:04:03.220Z,25.75
2018-10-16T12:06:31.148Z,25.67
2018-10-16T12:08:56.606Z,25.65
2018-10-16T12:11:26.643Z,25.70
2018-10-16T12:13:56.565Z,25.65
2018-10-16T12:16:23.624Z,25.63
2018-10-16T12:18:50.344Z,25.70
2018-10-16T12:21:19.987Z,25.68
2018-10-16T12:23:46.703Z,25.69
2018-10-16T12:26:13.431Z,25.64
2018-10-16T12:28:40.276Z,25.68
2018-10-16T12:31:07.165Z,25.64
2018-10-16T12:33:33.771Z,25.62
2018-10-16T12:36:00.529Z,25.74
2018-10-16T12:38:27.466Z,25.70
2018-10-16T12:40:54.023Z,25.81
2018-10-16T12:43:20.779Z,25.79
2018-10-16T12:45:50.469Z,25.85
2018-10-16T12:48:17.151Z,25.78
2018-10-16T12:50:43.954Z,25.86
2018-10-16T12:53:10.705Z,25.80
2018-10-16T12:55:37.217Z,25.85
2018-10-16T12:58:03.950Z,25.82
2018-10-16T13:00:30.679Z,25.82
2018-10-16T13:02:57.355Z,25.82
2018-10-16T13:05:24.045Z,25.86
2018-10-16T13:07:54.002Z,25.83
2018-10-16T13:10:20.731Z,25.87
2018-10-16T13:12:47.360Z,25.88
2018-10-16T13:15:16.081Z,25.84
2018-10-16T13:17:40.856Z,25.75
2018-10-16T13:20:07.616Z,25.82
2018-10-16T13:22:34.165Z,25.91
2018-10-16T13:25:00.814Z,25.97
2018-10-16T13:27:27.473Z,25.88
2018-10-16T13:29:55.613Z,25.91
2018-10-16T13:32:20.805Z,25.95
2018-10-16T13:34:47.418Z,25.97
2018-10-16T13:37:14.079Z,25.97
2018-10-16T13:39:40.735Z,26.06
2018-10-16T13:42:07.397Z,26.07
2018-10-16T13:44:35.408Z,26.06
2018-10-16T13:47:00.705Z,26.07
2018-10-16T13:49:27.438Z,26.00
2018-10-16T13:51:54.139Z,26.09
2018-10-16T13:54:20.795Z,26.01
2018-10-16T13:56:47.468Z,25.98
2018-10-16T13:59:16.681Z,26.10
2018-10-16T14:01:43.364Z,25.98
2018-10-16T14:04:10.058Z,26.08
2018-10-16T14:06:36.644Z,26.11
2018-10-16T14:09:03.304Z,25.91
2018-10-16T14:11:29.950Z,25.88
2018-10-16T14:13:56.696Z,25.85
2018-10-16T14:16:23.358Z,25.90
2018-10-16T14:18:50.010Z,25.94
2018-10-16T14:21:16.747Z,25.91
2018-10-16T14:23:46.347Z,25.77
2018-10-16T14:26:13.205Z,25.78
2018-10-16T14:28:39.725Z,25.71
2018-10-16T14:31:06.374Z,25.72
2018-10-16T14:33:33.132Z,25.69
2018-10-16T14:35:59.803Z,25.61
2018-10-16T14:38:28.688Z,25.61
2018-10-16T14:40:55.472Z,25.71
2018-10-16T14:43:22.281Z,25.64
2018-10-16T14:45:49.035Z,25.57
2018-10-16T14:48:18.002Z,25.55
2018-10-16T14:50:44.816Z,25.51
2018-10-16T14:53:11.433Z,25.47
2018-10-16T14:55:38.078Z,25.43
2018-10-16T14:58:04.796Z,25.46
2018-10-16T15:00:31.405Z,25.47
2018-10-16T15:02:58.177Z,25.40
2018-10-16T15:05:24.820Z,25.45
2018-10-16T15:07:51.531Z,25.43
2018-10-16T15:10:18.239Z,25.46
2018-10-16T15:12:44.804Z,25.56
2018-10-16T15:15:11.609Z,25.42
2018-10-16T15:17:38.246Z,25.37
2018-10-16T15:20:05.551Z,25.34
2018-10-16T15:22:35.024Z,25.37
2018-10-16T15:25:01.675Z,25.34
2018-10-16T15:27:28.324Z,25.27
2018-10-16T15:29:54.980Z,25.26
2018-10-16T15:32:21.818Z,25.25
2018-10-16T15:34:48.462Z,25.21
2018-10-16T15:37:15.115Z,25.15
2018-10-16T15:39:41.858Z,25.12
2018-10-16T15:42:11.973Z,25.10
2018-10-16T15:44:40.176Z,25.05
2018-10-16T15:47:05.209Z,25.04
2018-10-16T15:49:31.854Z,25.00
2018-10-16T15:51:58.659Z,25.09
2018-10-16T15:54:25.247Z,24.99
2018-10-16T15:56:51.891Z,24.93
2018-10-16T15:59:21.485Z,24.92
2018-10-16T16:01:48.138Z,24.88
2018-10-16T16:04:14.790Z,24.85
2018-10-16T16:06:41.431Z,24.82
2018-10-16T16:09:08.578Z,24.80
2018-10-16T16:11:35.278Z,24.78
2018-10-16T16:14:01.948Z,24.77
2018-10-16T16:16:28.661Z,24.74
2018-10-16T16:18:55.403Z,24.73
2018-10-16T16:21:22.051Z,24.69
2018-10-16T16:23:48.817Z,24.69
2018-10-16T16:26:15.534Z,24.66
2018-10-16T16:28:42.090Z,24.75
2018-10-16T16:31:08.795Z,24.66
2018-10-16T16:33:35.565Z,24.63
2018-10-16T16:36:02.307Z,24.60
2018-10-16T16:38:29.015Z,24.57
2018-10-16T16:40:55.846Z,24.53
2018-10-16T16:43:22.419Z,24.53
2018-10-16T16:45:49.141Z,24.52
2018-10-16T16:48:15.814Z,24.51
2018-10-16T16:50:42.454Z,24.51
2018-10-16T16:53:09.248Z,24.53
2018-10-16T16:55:35.923Z,24.50
2018-10-16T16:58:02.578Z,24.44
2018-10-16T17:00:29.210Z,24.39
2018-10-16T17:02:56.005Z,24.38
2018-10-16T17:05:23.891Z,24.32
2018-10-16T17:07:49.256Z,24.31
2018-10-16T17:10:16.077Z,24.29
2018-10-16T17:12:42.627Z,24.26
2018-10-16T17:15:09.366Z,24.26
2018-10-16T17:20:03.757Z,24.20
2018-10-16T17:22:29.035Z,24.14
2018-10-16T17:24:55.754Z,24.15
2018-10-16T17:27:22.391Z,24.12
2018-10-16T17:29:49.228Z,24.11
2018-10-16T17:32:15.906Z,24.09
2018-10-16T17:34:42.585Z,24.08
2018-10-16T17:37:09.303Z,24.08
2018-10-16T17:39:36.121Z,24.12
2018-10-16T17:42:02.725Z,24.17
2018-10-16T17:44:29.372Z,24.03
2018-10-16T17:46:56.026Z,23.98
2018-10-16T17:49:22.666Z,23.98
2018-10-16T17:51:49.302Z,23.96
2018-10-16T17:54:15.982Z,23.92
2018-10-16T17:56:42.646Z,23.92
2018-10-16T17:59:09.427Z,23.90
2018-10-16T18:01:36.158Z,23.89
2018-10-16T18:04:02.826Z,23.86
2018-10-16T18:06:30.897Z,23.84
2018-10-16T18:08:56.151Z,23.82
2018-10-16T18:11:22.782Z,23.82
2018-10-16T18:13:49.508Z,23.80
2018-10-16T18:16:16.132Z,23.79
2018-10-16T18:18:42.767Z,23.75
2018-10-16T18:21:09.441Z,23.78
2018-10-16T18:23:36.120Z,23.77
2018-10-16T18:26:02.758Z,23.77
2018-10-16T18:28:30.838Z,23.71
2018-10-16T18:30:56.137Z,23.72
2018-10-16T18:33:24.879Z,23.75
2018-10-16T18:35:51.602Z,23.68
2018-10-16T18:38:18.358Z,23.70
2018-10-16T18:40:45.002Z,23.70
2018-10-16T18:43:11.646Z,23.70
2018-10-16T18:45:38.384Z,23.63
2018-10-16T18:48:05.080Z,23.63
2018-10-16T18:50:31.742Z,23.65
2018-10-16T18:52:58.396Z,23.63
2018-10-16T18:55:25.165Z,23.66
2018-10-16T18:57:51.810Z,23.61
2018-10-16T19:00:21.844Z,23.57
2018-10-16T19:02:48.515Z,23.57
2018-10-16T19:05:15.170Z,23.55
2018-10-16T19:07:41.851Z,23.52
2018-10-16T19:10:08.590Z,23.52
2018-10-16T19:12:35.311Z,23.56
2018-10-16T19:15:02.173Z,23.48
2018-10-16T19:17:28.701Z,23.46
2018-10-16T19:19:55.384Z,23.51
2018-10-16T19:22:22.044Z,23.46
2018-10-16T19:24:48.690Z,23.48
2018-10-16T19:27:15.400Z,23.45
2018-10-16T19:29:41.988Z,23.46
2018-10-16T19:32:08.711Z,23.45
2018-10-16T19:34:36.752Z,23.43
2018-10-16T19:37:02.066Z,23.42
2018-10-16T19:39:28.707Z,23.43
2018-10-16T19:41:55.357Z,23.42
2018-10-16T19:44:22.177Z,23.42
2018-10-16T19:46:48.830Z,23.41
2018-10-16T19:49:15.559Z,23.35
2018-10-16T19:51:42.209Z,23.38
2018-10-16T19:54:08.876Z,23.35
2018-10-16T19:56:35.525Z,23.34
2018-10-16T19:59:02.209Z,23.35
2018-10-16T20:01:28.841Z,23.30
2018-10-16T20:03:55.544Z,23.35
2018-10-16T20:06:25.545Z,23.31
2018-10-16T20:08:52.300Z,23.31
2018-10-16T20:11:18.900Z,23.28
2018-10-16T20:13:45.536Z,23.30
2018-10-16T20:16:12.263Z,23.24
2018-10-16T20:18:38.907Z,23.25
2018-10-16T20:21:05.590Z,23.22
2018-10-16T20:23:32.217Z,23.25
2018-10-16T20:25:58.911Z,23.20
2018-10-16T20:28:25.576Z,23.19
2018-10-16T20:30:52.270Z,23.17
2018-10-16T20:33:18.887Z,23.16
2018-10-16T20:35:45.532Z,23.16
2018-10-16T20:38:12.209Z,23.13
2018-10-16T20:40:38.845Z,23.18
2018-10-16T20:43:05.518Z,23.09
2018-10-16T20:45:32.232Z,23.14
2018-10-16T20:47:58.910Z,23.11
2018-10-16T20:50:25.633Z,23.08
2018-10-16T20:52:52.336Z,23.05
2018-10-16T20:55:18.959Z,23.07
2018-10-16T20:57:45.638Z,23.06
2018-10-16T21:00:12.434Z,23.07
2018-10-16T21:02:39.110Z,23.04
2018-10-16T21:05:06.038Z,23.03
2018-10-16T21:07:32.711Z,23.03
2018-10-16T21:09:59.277Z,23.05
2018-10-16T21:12:28.052Z,23.03
2018-10-16T21:14:54.793Z,22.99
2018-10-16T21:17:24.800Z,22.97
2018-10-16T21:19:51.549Z,22.97
2018-10-16T21:22:18.214Z,22.95
2018-10-16T21:24:46.088Z,22.98
2018-10-16T21:27:11.480Z,22.92
2018-10-16T21:29:38.107Z,22.93
2018-10-16T21:32:04.757Z,22.91
2018-10-16T21:34:31.401Z,22.93
2018-10-16T21:36:58.072Z,22.94
2018-10-16T21:39:24.696Z,22.89
2018-10-16T21:41:51.330Z,22.88
2018-10-16T21:44:19.852Z,22.91
2018-10-16T21:46:44.657Z,22.86
2018-10-16T21:49:14.108Z,22.86
2018-10-16T21:51:40.630Z,22.86
2018-10-16T21:54:07.341Z,22.84
2018-10-16T21:56:34.038Z,22.82
2018-10-16T21:59:00.759Z,22.81
2018-10-16T22:01:30.353Z,22.82
2018-10-16T22:03:56.997Z,22.77
2018-10-16T22:06:23.647Z,22.78
2018-10-16T22:08:50.333Z,22.77
2018-10-16T22:11:17.065Z,22.78
2018-10-16T22:13:43.792Z,22.77
2018-10-16T22:16:10.531Z,22.72
2018-10-16T22:18:37.245Z,22.75
2018-10-16T22:21:03.962Z,22.71
2018-10-16T22:23:30.643Z,22.72
2018-10-16T22:25:57.260Z,22.71
2018-10-16T22:28:23.949Z,22.71
2018-10-16T22:30:50.598Z,22.68
2018-10-16T22:33:17.322Z,22.69
2018-10-16T22:35:43.962Z,22.69
2018-10-16T22:38:13.397Z,22.64
2018-10-16T22:40:41.472Z,22.66
2018-10-16T22:43:06.834Z,22.65
2018-10-16T22:45:33.613Z,22.61
2018-10-16T22:48:00.295Z,22.64
2018-10-16T22:50:26.988Z,22.61
2018-10-16T22:52:53.726Z,22.59
2018-10-16T22:55:20.338Z,22.61
2018-10-16T22:57:47.017Z,22.54
2018-10-16T23:00:13.746Z,22.55
2018-10-16T23:02:40.517Z,22.56
2018-10-16T23:05:07.361Z,22.55
2018-10-16T23:07:33.999Z,22.55
2018-10-16T23:10:00.740Z,22.54
2018-10-16T23:12:28.670Z,22.52
2018-10-16T23:14:54.088Z,22.50
2018-10-16T23:17:20.729Z,22.47
2018-10-16T23:19:47.509Z,22.48
2018-10-16T23:22:14.164Z,22.50
2018-10-16T23:24:40.915Z,22.48
2018-10-16T23:27:07.560Z,22.45
2018-10-16T23:29:34.262Z,22.47
2018-10-16T23:32:02.230Z,22.45
2018-10-16T23:34:27.707Z,22.42
2018-10-16T23:36:54.338Z,22.41
2018-10-16T23:39:21.053Z,22.39
2018-10-16T23:41:47.690Z,22.40
2018-10-16T23:44:14.381Z,22.41
2018-10-16T23:46:41.012Z,22.43
2018-10-16T23:49:07.719Z,22.37
2018-10-16T23:51:34.316Z,22.37
2018-10-16T23:54:01.087Z,22.37
2018-10-16T23:56:27.721Z,22.36
2018-10-16T23:58:54.468Z,22.35
